Terminal Aerodrome Forecast
Issued by NWS

Home | Current Version | Previous Version | Text Only | Print | Product List | Glossary On
Versions: 1 2 3 4 5 6 7 8 9 10 11 12 13
793
FTUS46 KLOX 252159 AAA
TAFSBP
TAF AMD
KSBP 252159Z 2522/2618 32018G25KT P6SM SCT200
     FM260100 31022G28KT P6SM SCT030 BKN200
     FM260300 32015G22KT P6SM SCT200
     FM260600 31010KT P6SM BKN200
     FM261700 32017KT P6SM BKN200=

USA.gov is the U.S. government's official web portal to all federal, state and local government web resources and services.